sensor_id;sensor_type;location;lat;lon;timestamp;P1;durP1;ratioP1;P2;durP2;ratioP2
20411;SDS011;10365;52.578;8.138;2022-12-17T00:02:03;32.00;;;15.30;;
20411;SDS011;10365;52.578;8.138;2022-12-17T00:04:47;35.38;;;13.55;;
20411;SDS011;10365;52.578;8.138;2022-12-17T00:07:31;28.48;;;14.05;;
20411;SDS011;10365;52.578;8.138;2022-12-17T00:10:15;34.13;;;14.93;;
20411;SDS011;10365;52.578;8.138;2022-12-17T00:12:59;33.08;;;15.90;;
20411;SDS011;10365;52.578;8.138;2022-12-17T00:15:49;31.88;;;16.30;;
20411;SDS011;10365;52.578;8.138;2022-12-17T00:18:33;36.78;;;16.48;;
20411;SDS011;10365;52.578;8.138;2022-12-17T00:21:17;37.60;;;18.85;;
20411;SDS011;10365;52.578;8.138;2022-12-17T00:24:01;33.40;;;18.02;;
20411;SDS011;10365;52.578;8.138;2022-12-17T00:26:45;32.40;;;17.42;;
20411;SDS011;10365;52.578;8.138;2022-12-17T00:29:29;37.83;;;19.45;;
20411;SDS011;10365;52.578;8.138;2022-12-17T00:32:14;41.10;;;19.08;;
20411;SDS011;10365;52.578;8.138;2022-12-17T00:34:58;39.97;;;17.75;;
20411;SDS011;10365;52.578;8.138;2022-12-17T00:37:44;35.22;;;18.65;;
20411;SDS011;10365;52.578;8.138;2022-12-17T00:40:28;39.40;;;18.17;;
20411;SDS011;10365;52.578;8.138;2022-12-17T00:43:13;40.13;;;19.00;;
20411;SDS011;10365;52.578;8.138;2022-12-17T00:45:57;43.17;;;18.83;;
20411;SDS011;10365;52.578;8.138;2022-12-17T00:48:41;40.67;;;19.65;;
20411;SDS011;10365;52.578;8.138;2022-12-17T00:51:26;35.85;;;18.42;;
20411;SDS011;10365;52.578;8.138;2022-12-17T00:54:12;36.38;;;17.95;;
20411;SDS011;10365;52.578;8.138;2022-12-17T00:56:56;41.10;;;18.80;;
20411;SDS011;10365;52.578;8.138;2022-12-17T00:59:40;41.20;;;19.08;;
20411;SDS011;10365;52.578;8.138;2022-12-17T01:02:25;37.83;;;19.05;;
20411;SDS011;10365;52.578;8.138;2022-12-17T01:05:11;39.80;;;19.38;;
20411;SDS011;10365;52.578;8.138;2022-12-17T01:07:55;41.78;;;19.73;;
20411;SDS011;10365;52.578;8.138;2022-12-17T01:10:39;37.67;;;19.90;;
20411;SDS011;10365;52.578;8.138;2022-12-17T01:13:24;37.10;;;20.13;;
20411;SDS011;10365;52.578;8.138;2022-12-17T01:16:10;46.03;;;20.42;;
20411;SDS011;10365;52.578;8.138;2022-12-17T01:19:02;49.05;;;20.98;;
20411;SDS011;10365;52.578;8.138;2022-12-17T01:21:46;32.83;;;19.35;;
20411;SDS011;10365;52.578;8.138;2022-12-17T01:24:30;35.97;;;19.48;;
20411;SDS011;10365;52.578;8.138;2022-12-17T01:27:14;41.60;;;18.73;;
20411;SDS011;10365;52.578;8.138;2022-12-17T01:30:00;45.40;;;20.55;;
20411;SDS011;10365;52.578;8.138;2022-12-17T01:32:44;42.90;;;19.65;;
20411;SDS011;10365;52.578;8.138;2022-12-17T01:35:28;42.78;;;20.80;;
20411;SDS011;10365;52.578;8.138;2022-12-17T01:38:13;48.03;;;22.15;;
20411;SDS011;10365;52.578;8.138;2022-12-17T01:40:58;41.95;;;19.85;;
20411;SDS011;10365;52.578;8.138;2022-12-17T01:43:43;43.25;;;20.77;;
20411;SDS011;10365;52.578;8.138;2022-12-17T01:46:28;42.30;;;21.15;;
20411;SDS011;10365;52.578;8.138;2022-12-17T01:49:14;46.28;;;19.98;;
20411;SDS011;10365;52.578;8.138;2022-12-17T01:51:59;44.72;;;20.15;;
20411;SDS011;10365;52.578;8.138;2022-12-17T01:54:43;42.05;;;20.55;;
20411;SDS011;10365;52.578;8.138;2022-12-17T01:57:28;43.97;;;19.80;;
20411;SDS011;10365;52.578;8.138;2022-12-17T02:00:13;42.25;;;21.58;;
20411;SDS011;10365;52.578;8.138;2022-12-17T02:02:57;45.65;;;21.15;;
20411;SDS011;10365;52.578;8.138;2022-12-17T02:08:31;38.65;;;20.98;;
20411;SDS011;10365;52.578;8.138;2022-12-17T02:11:27;36.72;;;20.02;;
20411;SDS011;10365;52.578;8.138;2022-12-17T02:17:05;45.47;;;23.05;;
20411;SDS011;10365;52.578;8.138;2022-12-17T02:28:25;48.58;;;22.65;;
20411;SDS011;10365;52.578;8.138;2022-12-17T02:31:10;49.53;;;22.65;;
20411;SDS011;10365;52.578;8.138;2022-12-17T02:33:54;53.55;;;24.10;;
20411;SDS011;10365;52.578;8.138;2022-12-17T02:36:42;52.85;;;22.77;;
20411;SDS011;10365;52.578;8.138;2022-12-17T02:39:26;47.63;;;22.27;;
20411;SDS011;10365;52.578;8.138;2022-12-17T02:42:11;52.15;;;23.00;;
20411;SDS011;10365;52.578;8.138;2022-12-17T02:44:56;49.35;;;23.30;;
20411;SDS011;10365;52.578;8.138;2022-12-17T02:47:43;44.95;;;23.50;;
20411;SDS011;10365;52.578;8.138;2022-12-17T02:50:27;47.72;;;22.55;;
20411;SDS011;10365;52.578;8.138;2022-12-17T02:53:13;49.70;;;23.00;;
20411;SDS011;10365;52.578;8.138;2022-12-17T02:55:57;60.25;;;23.52;;
20411;SDS011;10365;52.578;8.138;2022-12-17T02:58:42;50.42;;;24.48;;
20411;SDS011;10365;52.578;8.138;2022-12-17T03:01:27;63.00;;;27.45;;
20411;SDS011;10365;52.578;8.138;2022-12-17T03:04:11;61.60;;;25.98;;
20411;SDS011;10365;52.578;8.138;2022-12-17T03:06:55;61.33;;;25.92;;
20411;SDS011;10365;52.578;8.138;2022-12-17T03:09:41;53.13;;;25.02;;
20411;SDS011;10365;52.578;8.138;2022-12-17T03:12:26;45.53;;;21.60;;
20411;SDS011;10365;52.578;8.138;2022-12-17T03:15:10;53.42;;;23.35;;
20411;SDS011;10365;52.578;8.138;2022-12-17T03:17:54;61.10;;;23.83;;
20411;SDS011;10365;52.578;8.138;2022-12-17T03:20:38;55.20;;;24.15;;
20411;SDS011;10365;52.578;8.138;2022-12-17T03:23:23;56.25;;;23.52;;
20411;SDS011;10365;52.578;8.138;2022-12-17T03:26:06;49.88;;;24.13;;
20411;SDS011;10365;52.578;8.138;2022-12-17T03:28:51;65.78;;;23.15;;
20411;SDS011;10365;52.578;8.138;2022-12-17T03:31:35;54.45;;;23.13;;
20411;SDS011;10365;52.578;8.138;2022-12-17T03:34:20;54.17;;;24.42;;
20411;SDS011;10365;52.578;8.138;2022-12-17T03:37:05;52.03;;;23.55;;
20411;SDS011;10365;52.578;8.138;2022-12-17T03:39:49;59.47;;;23.55;;
20411;SDS011;10365;52.578;8.138;2022-12-17T03:42:34;70.75;;;24.27;;
20411;SDS011;10365;52.578;8.138;2022-12-17T03:45:18;57.25;;;25.63;;
20411;SDS011;10365;52.578;8.138;2022-12-17T03:48:03;68.88;;;25.50;;
20411;SDS011;10365;52.578;8.138;2022-12-17T03:50:48;59.88;;;25.55;;
20411;SDS011;10365;52.578;8.138;2022-12-17T03:53:32;65.68;;;24.17;;
20411;SDS011;10365;52.578;8.138;2022-12-17T03:56:16;49.92;;;24.02;;
20411;SDS011;10365;52.578;8.138;2022-12-17T03:59:00;48.45;;;23.08;;
20411;SDS011;10365;52.578;8.138;2022-12-17T04:01:44;56.67;;;25.10;;
20411;SDS011;10365;52.578;8.138;2022-12-17T04:04:30;64.93;;;27.52;;
20411;SDS011;10365;52.578;8.138;2022-12-17T04:07:14;61.00;;;26.42;;
20411;SDS011;10365;52.578;8.138;2022-12-17T04:09:58;51.90;;;24.35;;
20411;SDS011;10365;52.578;8.138;2022-12-17T04:12:42;52.90;;;25.52;;
20411;SDS011;10365;52.578;8.138;2022-12-17T04:15:26;69.90;;;26.90;;
20411;SDS011;10365;52.578;8.138;2022-12-17T04:18:10;64.07;;;27.63;;
20411;SDS011;10365;52.578;8.138;2022-12-17T04:20:54;71.18;;;27.75;;
20411;SDS011;10365;52.578;8.138;2022-12-17T04:23:38;64.72;;;25.90;;
20411;SDS011;10365;52.578;8.138;2022-12-17T04:26:27;65.47;;;26.70;;
20411;SDS011;10365;52.578;8.138;2022-12-17T04:29:10;56.58;;;25.90;;
20411;SDS011;10365;52.578;8.138;2022-12-17T04:31:54;57.58;;;26.35;;
20411;SDS011;10365;52.578;8.138;2022-12-17T04:34:38;62.90;;;27.55;;
20411;SDS011;10365;52.578;8.138;2022-12-17T04:37:23;59.25;;;27.40;;
20411;SDS011;10365;52.578;8.138;2022-12-17T04:40:09;57.97;;;26.38;;
20411;SDS011;10365;52.578;8.138;2022-12-17T04:42:54;60.95;;;26.77;;
20411;SDS011;10365;52.578;8.138;2022-12-17T04:45:39;62.97;;;27.77;;
20411;SDS011;10365;52.578;8.138;2022-12-17T04:48:23;57.08;;;27.45;;
20411;SDS011;10365;52.578;8.138;2022-12-17T04:51:08;60.13;;;27.75;;
20411;SDS011;10365;52.578;8.138;2022-12-17T04:53:52;56.30;;;26.80;;
20411;SDS011;10365;52.578;8.138;2022-12-17T04:56:36;68.28;;;27.45;;
20411;SDS011;10365;52.578;8.138;2022-12-17T04:59:20;57.53;;;27.05;;
20411;SDS011;10365;52.578;8.138;2022-12-17T05:02:04;60.35;;;28.58;;
20411;SDS011;10365;52.578;8.138;2022-12-17T05:04:49;52.95;;;28.15;;
20411;SDS011;10365;52.578;8.138;2022-12-17T05:07:33;60.35;;;28.05;;
20411;SDS011;10365;52.578;8.138;2022-12-17T05:10:17;66.95;;;29.45;;
20411;SDS011;10365;52.578;8.138;2022-12-17T05:13:01;58.30;;;28.33;;
20411;SDS011;10365;52.578;8.138;2022-12-17T05:15:45;68.25;;;29.10;;
20411;SDS011;10365;52.578;8.138;2022-12-17T05:18:30;79.57;;;28.40;;
20411;SDS011;10365;52.578;8.138;2022-12-17T05:21:14;74.03;;;29.35;;
20411;SDS011;10365;52.578;8.138;2022-12-17T05:24:05;77.50;;;28.63;;
20411;SDS011;10365;52.578;8.138;2022-12-17T05:26:49;63.08;;;28.70;;
20411;SDS011;10365;52.578;8.138;2022-12-17T05:29:33;68.95;;;28.80;;
20411;SDS011;10365;52.578;8.138;2022-12-17T05:32:17;84.20;;;30.73;;
20411;SDS011;10365;52.578;8.138;2022-12-17T05:35:02;77.60;;;30.05;;
20411;SDS011;10365;52.578;8.138;2022-12-17T05:37:46;72.07;;;31.92;;
20411;SDS011;10365;52.578;8.138;2022-12-17T05:40:30;69.35;;;30.90;;
20411;SDS011;10365;52.578;8.138;2022-12-17T05:43:14;71.57;;;32.25;;
20411;SDS011;10365;52.578;8.138;2022-12-17T05:45:58;76.15;;;30.67;;
20411;SDS011;10365;52.578;8.138;2022-12-17T05:48:43;77.28;;;31.90;;
20411;SDS011;10365;52.578;8.138;2022-12-17T05:51:27;78.30;;;33.38;;
20411;SDS011;10365;52.578;8.138;2022-12-17T05:54:12;70.13;;;30.85;;
20411;SDS011;10365;52.578;8.138;2022-12-17T05:56:56;71.43;;;31.15;;
20411;SDS011;10365;52.578;8.138;2022-12-17T05:59:40;82.25;;;34.25;;
20411;SDS011;10365;52.578;8.138;2022-12-17T06:02:24;74.97;;;31.00;;
20411;SDS011;10365;52.578;8.138;2022-12-17T06:05:09;85.95;;;33.15;;
20411;SDS011;10365;52.578;8.138;2022-12-17T06:08:01;79.57;;;34.22;;
20411;SDS011;10365;52.578;8.138;2022-12-17T06:10:45;81.15;;;32.90;;
20411;SDS011;10365;52.578;8.138;2022-12-17T06:13:29;76.28;;;31.30;;
20411;SDS011;10365;52.578;8.138;2022-12-17T06:16:13;79.72;;;31.35;;
20411;SDS011;10365;52.578;8.138;2022-12-17T06:18:57;82.20;;;31.05;;
20411;SDS011;10365;52.578;8.138;2022-12-17T06:21:41;71.07;;;30.65;;
20411;SDS011;10365;52.578;8.138;2022-12-17T06:24:26;85.72;;;33.13;;
20411;SDS011;10365;52.578;8.138;2022-12-17T06:27:10;82.65;;;32.78;;
20411;SDS011;10365;52.578;8.138;2022-12-17T06:29:54;86.30;;;31.55;;
20411;SDS011;10365;52.578;8.138;2022-12-17T06:32:38;78.07;;;30.35;;
20411;SDS011;10365;52.578;8.138;2022-12-17T06:35:22;88.45;;;34.35;;
20411;SDS011;10365;52.578;8.138;2022-12-17T06:38:06;88.18;;;33.25;;
20411;SDS011;10365;52.578;8.138;2022-12-17T06:40:50;85.90;;;33.13;;
20411;SDS011;10365;52.578;8.138;2022-12-17T06:43:35;76.28;;;30.98;;
20411;SDS011;10365;52.578;8.138;2022-12-17T06:46:19;78.32;;;31.63;;
20411;SDS011;10365;52.578;8.138;2022-12-17T06:49:03;81.15;;;34.40;;
20411;SDS011;10365;52.578;8.138;2022-12-17T06:51:48;82.35;;;35.22;;
20411;SDS011;10365;52.578;8.138;2022-12-17T06:54:33;85.93;;;33.47;;
20411;SDS011;10365;52.578;8.138;2022-12-17T06:57:17;79.07;;;32.20;;
20411;SDS011;10365;52.578;8.138;2022-12-17T07:00:02;82.22;;;33.67;;
20411;SDS011;10365;52.578;8.138;2022-12-17T07:02:47;81.70;;;31.60;;
20411;SDS011;10365;52.578;8.138;2022-12-17T07:05:30;88.35;;;32.53;;
20411;SDS011;10365;52.578;8.138;2022-12-17T07:08:17;85.78;;;32.30;;
20411;SDS011;10365;52.578;8.138;2022-12-17T07:11:01;84.85;;;32.53;;
20411;SDS011;10365;52.578;8.138;2022-12-17T07:13:45;91.00;;;30.65;;
20411;SDS011;10365;52.578;8.138;2022-12-17T07:16:29;78.38;;;30.27;;
20411;SDS011;10365;52.578;8.138;2022-12-17T07:19:14;76.03;;;30.35;;
20411;SDS011;10365;52.578;8.138;2022-12-17T07:21:58;78.35;;;31.98;;
20411;SDS011;10365;52.578;8.138;2022-12-17T07:24:43;71.55;;;31.25;;
20411;SDS011;10365;52.578;8.138;2022-12-17T07:27:27;71.30;;;31.35;;
20411;SDS011;10365;52.578;8.138;2022-12-17T07:30:12;78.15;;;31.73;;
20411;SDS011;10365;52.578;8.138;2022-12-17T07:33:05;76.78;;;30.20;;
20411;SDS011;10365;52.578;8.138;2022-12-17T07:35:53;71.47;;;29.02;;
20411;SDS011;10365;52.578;8.138;2022-12-17T07:38:54;69.60;;;28.08;;
20411;SDS011;10365;52.578;8.138;2022-12-17T07:41:40;67.28;;;29.08;;
20411;SDS011;10365;52.578;8.138;2022-12-17T07:44:25;69.60;;;28.75;;
20411;SDS011;10365;52.578;8.138;2022-12-17T07:47:09;74.80;;;29.33;;
20411;SDS011;10365;52.578;8.138;2022-12-17T07:49:54;72.65;;;29.05;;
20411;SDS011;10365;52.578;8.138;2022-12-17T07:52:38;57.65;;;27.58;;
20411;SDS011;10365;52.578;8.138;2022-12-17T07:55:22;62.22;;;29.45;;
20411;SDS011;10365;52.578;8.138;2022-12-17T07:58:08;74.70;;;29.27;;
20411;SDS011;10365;52.578;8.138;2022-12-17T08:00:53;73.70;;;30.65;;
20411;SDS011;10365;52.578;8.138;2022-12-17T08:03:37;78.43;;;29.60;;
20411;SDS011;10365;52.578;8.138;2022-12-17T08:06:21;71.72;;;28.48;;
20411;SDS011;10365;52.578;8.138;2022-12-17T08:09:06;71.65;;;30.52;;
20411;SDS011;10365;52.578;8.138;2022-12-17T08:11:50;66.72;;;27.48;;
20411;SDS011;10365;52.578;8.138;2022-12-17T08:14:35;58.30;;;26.17;;
20411;SDS011;10365;52.578;8.138;2022-12-17T08:17:19;65.38;;;28.20;;
20411;SDS011;10365;52.578;8.138;2022-12-17T08:20:06;79.97;;;35.83;;
20411;SDS011;10365;52.578;8.138;2022-12-17T08:22:50;185.63;;;63.70;;
20411;SDS011;10365;52.578;8.138;2022-12-17T08:25:34;124.97;;;47.75;;
20411;SDS011;10365;52.578;8.138;2022-12-17T08:28:18;71.68;;;31.23;;
20411;SDS011;10365;52.578;8.138;2022-12-17T08:31:02;72.97;;;29.13;;
20411;SDS011;10365;52.578;8.138;2022-12-17T08:33:46;55.33;;;23.35;;
20411;SDS011;10365;52.578;8.138;2022-12-17T08:36:30;55.55;;;25.88;;
20411;SDS011;10365;52.578;8.138;2022-12-17T08:39:14;54.05;;;22.92;;
20411;SDS011;10365;52.578;8.138;2022-12-17T08:41:59;69.50;;;25.20;;
20411;SDS011;10365;52.578;8.138;2022-12-17T08:44:43;67.75;;;26.60;;
20411;SDS011;10365;52.578;8.138;2022-12-17T08:47:27;61.78;;;25.40;;
20411;SDS011;10365;52.578;8.138;2022-12-17T08:50:11;63.33;;;26.55;;
20411;SDS011;10365;52.578;8.138;2022-12-17T08:52:57;74.00;;;29.25;;
20411;SDS011;10365;52.578;8.138;2022-12-17T08:55:41;70.70;;;26.30;;
20411;SDS011;10365;52.578;8.138;2022-12-17T08:58:25;64.93;;;25.10;;
20411;SDS011;10365;52.578;8.138;2022-12-17T09:01:09;73.05;;;27.90;;
20411;SDS011;10365;52.578;8.138;2022-12-17T09:03:54;68.78;;;25.98;;
20411;SDS011;10365;52.578;8.138;2022-12-17T09:06:38;62.67;;;24.60;;
20411;SDS011;10365;52.578;8.138;2022-12-17T09:09:23;70.13;;;25.80;;
20411;SDS011;10365;52.578;8.138;2022-12-17T09:12:06;66.68;;;26.38;;
20411;SDS011;10365;52.578;8.138;2022-12-17T09:14:51;63.17;;;23.98;;
20411;SDS011;10365;52.578;8.138;2022-12-17T09:17:35;77.32;;;24.83;;
20411;SDS011;10365;52.578;8.138;2022-12-17T09:20:19;80.32;;;25.00;;
20411;SDS011;10365;52.578;8.138;2022-12-17T09:23:03;74.05;;;27.02;;
20411;SDS011;10365;52.578;8.138;2022-12-17T09:25:54;84.30;;;30.38;;
20411;SDS011;10365;52.578;8.138;2022-12-17T09:28:38;90.95;;;26.67;;
20411;SDS011;10365;52.578;8.138;2022-12-17T09:31:23;74.18;;;26.45;;
20411;SDS011;10365;52.578;8.138;2022-12-17T09:34:08;78.45;;;25.05;;
20411;SDS011;10365;52.578;8.138;2022-12-17T09:36:53;96.22;;;28.58;;
20411;SDS011;10365;52.578;8.138;2022-12-17T09:39:37;91.15;;;28.92;;
20411;SDS011;10365;52.578;8.138;2022-12-17T09:42:28;90.95;;;27.90;;
20411;SDS011;10365;52.578;8.138;2022-12-17T09:50:57;91.22;;;29.98;;
20411;SDS011;10365;52.578;8.138;2022-12-17T09:53:45;74.65;;;28.20;;
20411;SDS011;10365;52.578;8.138;2022-12-17T09:56:31;103.32;;;27.40;;
20411;SDS011;10365;52.578;8.138;2022-12-17T09:59:18;89.47;;;26.67;;
20411;SDS011;10365;52.578;8.138;2022-12-17T10:02:06;111.10;;;30.15;;
20411;SDS011;10365;52.578;8.138;2022-12-17T10:04:54;109.75;;;34.92;;
20411;SDS011;10365;52.578;8.138;2022-12-17T10:07:38;100.50;;;32.92;;
20411;SDS011;10365;52.578;8.138;2022-12-17T10:10:26;89.45;;;28.90;;
20411;SDS011;10365;52.578;8.138;2022-12-17T10:13:15;89.97;;;27.13;;
20411;SDS011;10365;52.578;8.138;2022-12-17T10:16:00;80.50;;;25.20;;
20411;SDS011;10365;52.578;8.138;2022-12-17T10:18:44;79.63;;;26.13;;
20411;SDS011;10365;52.578;8.138;2022-12-17T10:21:29;95.28;;;26.50;;
20411;SDS011;10365;52.578;8.138;2022-12-17T10:24:13;79.68;;;24.35;;
20411;SDS011;10365;52.578;8.138;2022-12-17T10:26:57;80.82;;;27.83;;
20411;SDS011;10365;52.578;8.138;2022-12-17T10:29:42;80.35;;;25.75;;
20411;SDS011;10365;52.578;8.138;2022-12-17T10:32:27;86.55;;;27.02;;
20411;SDS011;10365;52.578;8.138;2022-12-17T10:35:25;101.90;;;29.35;;
20411;SDS011;10365;52.578;8.138;2022-12-17T10:38:18;92.45;;;28.88;;
20411;SDS011;10365;52.578;8.138;2022-12-17T10:41:03;100.97;;;28.98;;
20411;SDS011;10365;52.578;8.138;2022-12-17T10:43:48;91.32;;;26.92;;
20411;SDS011;10365;52.578;8.138;2022-12-17T10:46:32;77.47;;;25.55;;
20411;SDS011;10365;52.578;8.138;2022-12-17T10:55:00;98.75;;;28.73;;
20411;SDS011;10365;52.578;8.138;2022-12-17T10:57:44;102.65;;;32.72;;
20411;SDS011;10365;52.578;8.138;2022-12-17T11:00:32;98.28;;;31.38;;
20411;SDS011;10365;52.578;8.138;2022-12-17T11:03:37;96.45;;;28.73;;
20411;SDS011;10365;52.578;8.138;2022-12-17T11:07:07;112.30;;;36.00;;
20411;SDS011;10365;52.578;8.138;2022-12-17T11:12:22;98.45;;;31.90;;
20411;SDS011;10365;52.578;8.138;2022-12-17T11:15:21;106.00;;;34.08;;
20411;SDS011;10365;52.578;8.138;2022-12-17T11:18:09;102.05;;;30.08;;
20411;SDS011;10365;52.578;8.138;2022-12-17T11:20:59;95.57;;;29.77;;
20411;SDS011;10365;52.578;8.138;2022-12-17T11:23:47;102.57;;;29.00;;
20411;SDS011;10365;52.578;8.138;2022-12-17T11:26:34;101.28;;;28.85;;
20411;SDS011;10365;52.578;8.138;2022-12-17T11:29:19;81.30;;;27.33;;
20411;SDS011;10365;52.578;8.138;2022-12-17T11:35:00;72.65;;;22.92;;
20411;SDS011;10365;52.578;8.138;2022-12-17T11:37:51;87.00;;;26.42;;
20411;SDS011;10365;52.578;8.138;2022-12-17T11:40:39;74.80;;;25.75;;
20411;SDS011;10365;52.578;8.138;2022-12-17T11:43:43;78.20;;;25.98;;
20411;SDS011;10365;52.578;8.138;2022-12-17T11:55:00;85.95;;;25.77;;
20411;SDS011;10365;52.578;8.138;2022-12-17T12:00:40;86.45;;;25.63;;
20411;SDS011;10365;52.578;8.138;2022-12-17T12:03:34;73.05;;;22.95;;
20411;SDS011;10365;52.578;8.138;2022-12-17T12:29:32;94.13;;;28.80;;
20411;SDS011;10365;52.578;8.138;2022-12-17T12:32:20;88.10;;;25.52;;
20411;SDS011;10365;52.578;8.138;2022-12-17T12:35:16;85.82;;;25.23;;
20411;SDS011;10365;52.578;8.138;2022-12-17T12:38:01;81.28;;;24.00;;
20411;SDS011;10365;52.578;8.138;2022-12-17T12:40:47;78.25;;;22.92;;
20411;SDS011;10365;52.578;8.138;2022-12-17T12:43:34;79.78;;;25.30;;
20411;SDS011;10365;52.578;8.138;2022-12-17T12:46:24;74.95;;;24.23;;
20411;SDS011;10365;52.578;8.138;2022-12-17T12:51:57;87.60;;;25.60;;
20411;SDS011;10365;52.578;8.138;2022-12-17T13:00:36;79.93;;;23.30;;
20411;SDS011;10365;52.578;8.138;2022-12-17T13:03:30;84.47;;;25.85;;
20411;SDS011;10365;52.578;8.138;2022-12-17T13:09:04;77.20;;;25.02;;
20411;SDS011;10365;52.578;8.138;2022-12-17T13:11:35;83.95;;;23.77;;
20411;SDS011;10365;52.578;8.138;2022-12-17T13:14:05;76.95;;;22.80;;
20411;SDS011;10365;52.578;8.138;2022-12-17T13:16:53;89.28;;;29.17;;
20411;SDS011;10365;52.578;8.138;2022-12-17T13:21:43;92.13;;;27.00;;
20411;SDS011;10365;52.578;8.138;2022-12-17T13:24:09;87.15;;;26.63;;
20411;SDS011;10365;52.578;8.138;2022-12-17T13:29:11;81.32;;;25.67;;
20411;SDS011;10365;52.578;8.138;2022-12-17T13:36:40;73.43;;;25.15;;
20411;SDS011;10365;52.578;8.138;2022-12-17T13:41:53;85.85;;;26.58;;
20411;SDS011;10365;52.578;8.138;2022-12-17T13:44:21;84.60;;;25.83;;
20411;SDS011;10365;52.578;8.138;2022-12-17T13:46:49;83.53;;;26.38;;
20411;SDS011;10365;52.578;8.138;2022-12-17T13:49:25;74.88;;;23.45;;
20411;SDS011;10365;52.578;8.138;2022-12-17T13:52:01;61.88;;;21.20;;
20411;SDS011;10365;52.578;8.138;2022-12-17T13:54:27;79.38;;;22.52;;
20411;SDS011;10365;52.578;8.138;2022-12-17T13:56:52;71.57;;;24.55;;
20411;SDS011;10365;52.578;8.138;2022-12-17T13:59:19;71.50;;;24.40;;
20411;SDS011;10365;52.578;8.138;2022-12-17T14:01:47;70.93;;;23.20;;
20411;SDS011;10365;52.578;8.138;2022-12-17T14:04:22;75.80;;;24.10;;
20411;SDS011;10365;52.578;8.138;2022-12-17T14:06:49;73.88;;;24.10;;
20411;SDS011;10365;52.578;8.138;2022-12-17T14:09:15;62.55;;;22.08;;
20411;SDS011;10365;52.578;8.138;2022-12-17T14:11:42;68.00;;;23.38;;
20411;SDS011;10365;52.578;8.138;2022-12-17T14:14:30;67.32;;;23.73;;
20411;SDS011;10365;52.578;8.138;2022-12-17T14:16:56;77.25;;;24.15;;
20411;SDS011;10365;52.578;8.138;2022-12-17T14:19:22;72.85;;;23.80;;
20411;SDS011;10365;52.578;8.138;2022-12-17T14:21:50;70.28;;;23.77;;
20411;SDS011;10365;52.578;8.138;2022-12-17T14:24:16;66.45;;;21.60;;
20411;SDS011;10365;52.578;8.138;2022-12-17T14:26:53;57.25;;;22.35;;
20411;SDS011;10365;52.578;8.138;2022-12-17T14:29:25;69.60;;;22.27;;
20411;SDS011;10365;52.578;8.138;2022-12-17T14:31:51;66.40;;;22.98;;
20411;SDS011;10365;52.578;8.138;2022-12-17T14:34:17;71.13;;;22.35;;
20411;SDS011;10365;52.578;8.138;2022-12-17T14:36:43;61.28;;;19.35;;
20411;SDS011;10365;52.578;8.138;2022-12-17T14:39:16;70.32;;;21.63;;
20411;SDS011;10365;52.578;8.138;2022-12-17T14:41:41;62.83;;;21.13;;
20411;SDS011;10365;52.578;8.138;2022-12-17T14:44:26;60.20;;;21.70;;
20411;SDS011;10365;52.578;8.138;2022-12-17T14:47:16;66.80;;;20.92;;
20411;SDS011;10365;52.578;8.138;2022-12-17T14:49:46;57.53;;;19.95;;
20411;SDS011;10365;52.578;8.138;2022-12-17T14:52:13;59.75;;;22.40;;
20411;SDS011;10365;52.578;8.138;2022-12-17T14:54:43;59.70;;;20.58;;
20411;SDS011;10365;52.578;8.138;2022-12-17T14:57:16;51.83;;;18.98;;
20411;SDS011;10365;52.578;8.138;2022-12-17T14:59:43;56.13;;;19.35;;
20411;SDS011;10365;52.578;8.138;2022-12-17T15:02:19;63.10;;;20.80;;
20411;SDS011;10365;52.578;8.138;2022-12-17T15:04:47;55.42;;;20.65;;
20411;SDS011;10365;52.578;8.138;2022-12-17T15:07:21;65.07;;;21.50;;
20411;SDS011;10365;52.578;8.138;2022-12-17T15:09:47;58.38;;;20.38;;
20411;SDS011;10365;52.578;8.138;2022-12-17T15:12:13;51.28;;;19.27;;
20411;SDS011;10365;52.578;8.138;2022-12-17T15:14:38;69.28;;;20.98;;
20411;SDS011;10365;52.578;8.138;2022-12-17T15:17:03;56.72;;;20.48;;
20411;SDS011;10365;52.578;8.138;2022-12-17T15:19:29;54.70;;;19.23;;
20411;SDS011;10365;52.578;8.138;2022-12-17T15:21:56;64.50;;;20.60;;
20411;SDS011;10365;52.578;8.138;2022-12-17T15:24:21;57.67;;;20.35;;
20411;SDS011;10365;52.578;8.138;2022-12-17T15:26:47;66.15;;;20.48;;
20411;SDS011;10365;52.578;8.138;2022-12-17T15:29:13;53.25;;;21.33;;
20411;SDS011;10365;52.578;8.138;2022-12-17T15:31:38;69.70;;;20.52;;
20411;SDS011;10365;52.578;8.138;2022-12-17T15:34:04;68.70;;;24.20;;
20411;SDS011;10365;52.578;8.138;2022-12-17T15:36:29;67.60;;;21.50;;
20411;SDS011;10365;52.578;8.138;2022-12-17T15:38:58;65.38;;;22.92;;
20411;SDS011;10365;52.578;8.138;2022-12-17T15:41:24;73.07;;;21.35;;
20411;SDS011;10365;52.578;8.138;2022-12-17T15:44:10;67.32;;;22.15;;
20411;SDS011;10365;52.578;8.138;2022-12-17T15:46:36;70.20;;;23.35;;
20411;SDS011;10365;52.578;8.138;2022-12-17T15:49:02;68.50;;;23.20;;
20411;SDS011;10365;52.578;8.138;2022-12-17T15:51:28;71.65;;;24.40;;
20411;SDS011;10365;52.578;8.138;2022-12-17T15:53:53;74.80;;;22.25;;
20411;SDS011;10365;52.578;8.138;2022-12-17T15:56:22;71.88;;;23.67;;
20411;SDS011;10365;52.578;8.138;2022-12-17T15:58:48;60.30;;;19.00;;
20411;SDS011;10365;52.578;8.138;2022-12-17T16:01:14;64.35;;;21.98;;
20411;SDS011;10365;52.578;8.138;2022-12-17T16:03:40;53.75;;;19.77;;
20411;SDS011;10365;52.578;8.138;2022-12-17T16:06:05;75.65;;;22.73;;
20411;SDS011;10365;52.578;8.138;2022-12-17T16:08:30;76.35;;;23.02;;
20411;SDS011;10365;52.578;8.138;2022-12-17T16:10:56;62.20;;;22.52;;
20411;SDS011;10365;52.578;8.138;2022-12-17T16:13:21;63.17;;;20.85;;
20411;SDS011;10365;52.578;8.138;2022-12-17T16:15:54;63.97;;;21.40;;
20411;SDS011;10365;52.578;8.138;2022-12-17T16:18:19;69.38;;;26.65;;
20411;SDS011;10365;52.578;8.138;2022-12-17T16:20:46;64.05;;;23.05;;
20411;SDS011;10365;52.578;8.138;2022-12-17T16:23:12;68.45;;;23.42;;
20411;SDS011;10365;52.578;8.138;2022-12-17T16:25:37;70.80;;;24.10;;
20411;SDS011;10365;52.578;8.138;2022-12-17T16:28:03;64.50;;;21.13;;
20411;SDS011;10365;52.578;8.138;2022-12-17T16:30:28;49.22;;;17.63;;
20411;SDS011;10365;52.578;8.138;2022-12-17T16:32:56;55.35;;;20.88;;
20411;SDS011;10365;52.578;8.138;2022-12-17T16:35:21;67.43;;;21.63;;
20411;SDS011;10365;52.578;8.138;2022-12-17T16:37:48;58.33;;;21.60;;
20411;SDS011;10365;52.578;8.138;2022-12-17T16:40:13;74.15;;;23.25;;
20411;SDS011;10365;52.578;8.138;2022-12-17T16:42:39;65.40;;;22.30;;
20411;SDS011;10365;52.578;8.138;2022-12-17T16:45:04;74.82;;;23.88;;
20411;SDS011;10365;52.578;8.138;2022-12-17T16:47:30;58.35;;;20.90;;
20411;SDS011;10365;52.578;8.138;2022-12-17T16:49:55;79.35;;;24.33;;
20411;SDS011;10365;52.578;8.138;2022-12-17T16:52:21;56.58;;;21.10;;
20411;SDS011;10365;52.578;8.138;2022-12-17T16:54:46;65.35;;;22.17;;
20411;SDS011;10365;52.578;8.138;2022-12-17T16:57:12;76.72;;;24.00;;
20411;SDS011;10365;52.578;8.138;2022-12-17T16:59:38;69.00;;;22.90;;
20411;SDS011;10365;52.578;8.138;2022-12-17T17:02:04;70.50;;;22.50;;
20411;SDS011;10365;52.578;8.138;2022-12-17T17:04:29;75.40;;;23.48;;
20411;SDS011;10365;52.578;8.138;2022-12-17T17:06:55;71.82;;;23.15;;
20411;SDS011;10365;52.578;8.138;2022-12-17T17:09:21;68.03;;;21.88;;
20411;SDS011;10365;52.578;8.138;2022-12-17T17:11:47;66.65;;;21.67;;